createdAt,value
2017-08-02T00:00:28.405Z,8.70
2017-08-02T00:02:56.661Z,10.60
2017-08-02T00:05:24.147Z,9.80
2017-08-02T00:07:52.398Z,7.17
2017-08-02T00:10:19.885Z,12.30
2017-08-02T00:12:47.430Z,13.57
2017-08-02T00:15:14.925Z,8.73
2017-08-02T00:17:42.414Z,10.03
2017-08-02T00:20:09.898Z,11.07
2017-08-02T00:22:37.374Z,8.53
2017-08-02T00:25:04.850Z,10.43
2017-08-02T00:27:32.353Z,8.27
2017-08-02T00:29:59.829Z,11.00
2017-08-02T00:32:27.676Z,10.03
2017-08-02T00:34:55.193Z,10.03
2017-08-02T00:37:22.711Z,16.70
2017-08-02T00:39:50.342Z,8.87
2017-08-02T00:42:17.858Z,10.07
2017-08-02T00:44:46.136Z,8.03
2017-08-02T00:47:14.576Z,12.43
2017-08-02T00:49:42.089Z,17.37
2017-08-02T00:52:09.583Z,8.77
2017-08-02T00:54:37.059Z,9.03
2017-08-02T00:57:04.623Z,9.30
2017-08-02T00:59:32.114Z,9.37
2017-08-02T01:01:59.599Z,8.53
2017-08-02T01:04:27.122Z,8.07
2017-08-02T01:06:54.598Z,8.10
2017-08-02T01:09:22.848Z,23.03
2017-08-02T01:14:10.534Z,9.73
2017-08-02T01:16:38.028Z,11.77
2017-08-02T01:19:05.533Z,10.83
2017-08-02T01:21:33.031Z,11.03
2017-08-02T01:24:00.513Z,9.43
2017-08-02T01:26:27.999Z,9.37
2017-08-02T01:28:55.506Z,8.47
2017-08-02T01:31:22.992Z,8.23
2017-08-02T01:33:50.521Z,9.23
2017-08-02T01:36:18.041Z,10.30
2017-08-02T01:38:46.291Z,8.23
2017-08-02T01:41:13.779Z,8.47
2017-08-02T01:43:41.274Z,15.47
2017-08-02T01:46:08.759Z,12.67
2017-08-02T01:48:36.250Z,15.23
2017-08-02T01:51:03.752Z,9.43
2017-08-02T01:53:31.236Z,10.13
2017-08-02T01:55:58.709Z,10.00
2017-08-02T01:58:26.219Z,15.47
2017-08-02T02:00:53.694Z,10.10
2017-08-02T02:03:21.178Z,10.20
2017-08-02T02:05:48.665Z,10.40
2017-08-02T02:08:16.146Z,14.70
2017-08-02T02:10:43.614Z,9.73
2017-08-02T02:13:11.116Z,8.70
2017-08-02T02:15:38.612Z,10.13
2017-08-02T02:18:06.094Z,13.10
2017-08-02T02:20:33.603Z,8.60
2017-08-02T02:23:01.086Z,14.23
2017-08-02T02:25:28.557Z,13.53
2017-08-02T02:27:56.046Z,13.47
2017-08-02T02:30:23.518Z,8.30
2017-08-02T02:32:51.014Z,19.17
2017-08-02T02:35:18.502Z,7.50
2017-08-02T02:37:45.973Z,10.83
2017-08-02T02:40:13.461Z,11.13
2017-08-02T02:42:40.954Z,10.23
2017-08-02T02:45:08.434Z,10.10
2017-08-02T02:47:35.905Z,14.93
2017-08-02T02:50:03.418Z,8.60
2017-08-02T02:52:30.931Z,8.57
2017-08-02T02:54:58.410Z,9.27
2017-08-02T02:57:25.907Z,9.10
2017-08-02T02:59:53.381Z,11.67
2017-08-02T03:02:20.853Z,12.37
2017-08-02T03:04:48.353Z,13.17
2017-08-02T03:07:15.829Z,8.27
2017-08-02T03:09:43.310Z,16.27
2017-08-02T03:12:11.591Z,14.30
2017-08-02T03:14:39.838Z,15.50
2017-08-02T03:17:07.340Z,10.97
2017-08-02T03:19:34.848Z,11.90
2017-08-02T03:22:02.334Z,8.83
2017-08-02T03:24:29.813Z,11.07
2017-08-02T03:26:57.296Z,8.37
2017-08-02T03:29:24.779Z,18.40
2017-08-02T03:31:52.250Z,8.90
2017-08-02T03:34:19.743Z,9.53
2017-08-02T03:36:47.236Z,11.83
2017-08-02T03:39:14.785Z,13.53
2017-08-02T03:41:42.283Z,8.90
2017-08-02T03:44:09.758Z,9.77
2017-08-02T03:46:38.007Z,12.60
2017-08-02T03:49:05.503Z,12.17
2017-08-02T03:51:33.771Z,12.60
2017-08-02T03:54:01.251Z,8.37
2017-08-02T03:56:28.741Z,8.53
2017-08-02T03:58:56.886Z,17.10
2017-08-02T04:01:24.701Z,9.23
2017-08-02T04:03:52.203Z,12.40
2017-08-02T04:06:20.456Z,9.53
2017-08-02T04:08:47.985Z,15.20
2017-08-02T04:11:15.710Z,13.20
2017-08-02T04:13:43.945Z,9.77
2017-08-02T04:16:11.422Z,9.57
2017-08-02T04:18:38.913Z,8.57
2017-08-02T04:21:06.420Z,12.20
2017-08-02T04:23:33.911Z,9.50
2017-08-02T04:26:01.401Z,11.53
2017-08-02T04:28:28.873Z,15.20
2017-08-02T04:30:56.392Z,10.20
2017-08-02T04:33:24.658Z,11.93
2017-08-02T04:35:52.902Z,10.33
2017-08-02T04:38:20.382Z,18.67
2017-08-02T04:40:47.882Z,8.20
2017-08-02T04:43:15.364Z,10.93
2017-08-02T04:45:42.855Z,10.73
2017-08-02T04:48:10.348Z,10.27
2017-08-02T04:50:38.594Z,9.37
2017-08-02T04:53:06.084Z,12.07
2017-08-02T04:55:33.584Z,11.30
2017-08-02T04:58:01.066Z,13.10
2017-08-02T05:00:28.546Z,12.27
2017-08-02T05:02:56.075Z,12.43
2017-08-02T05:05:23.565Z,11.53
2017-08-02T05:07:51.042Z,9.00
2017-08-02T05:10:18.539Z,17.23
2017-08-02T05:12:46.019Z,21.40
2017-08-02T05:15:13.507Z,13.63
2017-08-02T05:17:41.770Z,18.27
2017-08-02T05:20:09.251Z,21.43
2017-08-02T05:22:36.734Z,17.90
2017-08-02T05:25:04.309Z,14.23
2017-08-02T05:27:31.806Z,14.43
2017-08-02T05:29:59.292Z,25.60
2017-08-02T05:32:26.798Z,16.00
2017-08-02T05:34:54.274Z,21.03
2017-08-02T05:37:21.773Z,16.37
2017-08-02T05:39:49.279Z,20.17
2017-08-02T05:42:16.773Z,23.10
2017-08-02T05:44:44.250Z,13.40
2017-08-02T05:47:11.743Z,10.33
2017-08-02T05:49:40.170Z,17.33
2017-08-02T05:52:07.859Z,16.20
2017-08-02T05:54:36.219Z,20.40
2017-08-02T05:57:05.421Z,27.83
2017-08-02T05:59:33.675Z,16.30
2017-08-02T06:02:01.186Z,12.07
2017-08-02T06:04:28.658Z,14.33
2017-08-02T06:06:56.206Z,12.70
2017-08-02T06:09:23.985Z,18.93
2017-08-02T06:11:51.475Z,10.67
2017-08-02T06:14:18.959Z,10.40
2017-08-02T06:16:47.228Z,16.03
2017-08-02T06:19:16.375Z,14.27
2017-08-02T06:21:44.260Z,15.47
2017-08-02T06:24:11.826Z,17.30
2017-08-02T06:26:39.462Z,14.87
2017-08-02T06:29:07.058Z,16.43
2017-08-02T06:31:34.557Z,15.70
2017-08-02T06:34:02.036Z,19.23
2017-08-02T06:36:29.531Z,23.53
2017-08-02T06:38:57.152Z,20.80
2017-08-02T06:41:24.660Z,25.70
2017-08-02T06:43:52.159Z,22.33
2017-08-02T06:46:19.679Z,28.50
2017-08-02T06:48:47.163Z,24.00
2017-08-02T06:51:15.423Z,18.97
2017-08-02T06:53:42.917Z,26.47
2017-08-02T06:56:10.408Z,19.90
2017-08-02T06:58:37.979Z,19.67
2017-08-02T07:01:05.474Z,23.40
2017-08-02T07:03:34.224Z,19.80
2017-08-02T07:06:01.767Z,24.40
2017-08-02T07:08:29.285Z,17.30
2017-08-02T07:10:57.563Z,18.40
2017-08-02T07:13:25.902Z,23.53
2017-08-02T07:15:53.439Z,23.53
2017-08-02T07:18:21.074Z,32.23
2017-08-02T07:20:48.570Z,18.53
2017-08-02T07:23:16.121Z,16.77
2017-08-02T07:25:43.643Z,18.47
2017-08-02T07:28:11.903Z,24.90
2017-08-02T07:30:39.513Z,20.37
2017-08-02T07:33:06.997Z,22.70
2017-08-02T07:35:34.478Z,21.00
2017-08-02T07:38:01.965Z,21.00
2017-08-02T07:40:29.448Z,24.50
2017-08-02T07:42:56.926Z,25.87
2017-08-02T07:45:24.429Z,26.30
2017-08-02T07:47:52.697Z,21.33
2017-08-02T07:50:20.183Z,27.80
2017-08-02T07:52:47.691Z,17.43
2017-08-02T07:55:15.180Z,33.07
2017-08-02T07:57:43.440Z,29.20
2017-08-02T08:00:11.162Z,25.23
2017-08-02T08:02:38.643Z,32.00
2017-08-02T08:05:06.134Z,27.97
2017-08-02T08:07:34.422Z,28.93
2017-08-02T08:10:02.685Z,27.83
2017-08-02T08:12:31.171Z,25.77
2017-08-02T08:14:58.777Z,31.57
2017-08-02T08:17:26.454Z,31.03
2017-08-02T08:19:53.995Z,24.83
2017-08-02T08:22:21.504Z,25.50
2017-08-02T08:24:49.984Z,23.93
2017-08-02T08:27:18.082Z,27.10
2017-08-02T08:29:46.712Z,27.93
2017-08-02T08:32:14.503Z,26.23
2017-08-02T08:34:42.181Z,28.60
2017-08-02T08:37:09.692Z,29.00
2017-08-02T08:39:37.201Z,25.50
2017-08-02T08:42:05.602Z,24.30
2017-08-02T08:44:33.953Z,33.37
2017-08-02T08:47:01.573Z,25.33
2017-08-02T08:49:29.338Z,32.33
2017-08-02T08:51:56.838Z,22.77
2017-08-02T08:54:24.342Z,25.93
2017-08-02T08:56:51.830Z,23.60
2017-08-02T08:59:19.325Z,19.63
2017-08-02T09:01:46.824Z,23.30
2017-08-02T09:04:14.410Z,24.73
2017-08-02T09:06:41.925Z,25.70
2017-08-02T09:09:10.231Z,29.23
2017-08-02T09:11:37.715Z,27.90
2017-08-02T09:14:05.213Z,24.27
2017-08-02T09:16:33.776Z,20.97
2017-08-02T09:19:01.395Z,25.77
2017-08-02T09:21:28.888Z,31.60
2017-08-02T09:23:56.489Z,27.27
2017-08-02T09:26:24.954Z,26.67
2017-08-02T09:28:53.213Z,27.63
2017-08-02T09:31:20.702Z,34.40
2017-08-02T09:33:48.951Z,30.90
2017-08-02T09:36:16.469Z,30.27
2017-08-02T09:38:44.031Z,26.03
2017-08-02T09:41:11.516Z,20.40
2017-08-02T09:43:39.009Z,18.43
2017-08-02T09:46:07.262Z,18.70
2017-08-02T09:48:34.751Z,19.23
2017-08-02T09:51:03.025Z,19.83
2017-08-02T09:53:31.282Z,16.33
2017-08-02T09:55:58.766Z,16.13
2017-08-02T09:58:27.039Z,19.30
2017-08-02T10:00:55.282Z,13.63
2017-08-02T10:03:22.766Z,18.03
2017-08-02T10:05:51.037Z,12.53
2017-08-02T10:08:19.284Z,18.07
2017-08-02T10:10:46.791Z,17.53
2017-08-02T10:13:15.100Z,16.73
2017-08-02T10:15:42.588Z,12.47
2017-08-02T10:18:10.083Z,11.87
2017-08-02T10:20:38.362Z,13.60
2017-08-02T10:23:06.601Z,11.07
2017-08-02T10:25:34.086Z,10.30
2017-08-02T10:28:01.574Z,17.00
2017-08-02T10:30:29.062Z,15.10
2017-08-02T10:32:56.538Z,14.57
2017-08-02T10:35:24.028Z,13.93
2017-08-02T10:37:52.275Z,10.63
2017-08-02T10:40:19.765Z,14.77
2017-08-02T10:42:48.034Z,11.37
2017-08-02T10:45:16.299Z,13.47
2017-08-02T10:47:43.781Z,12.67
2017-08-02T10:50:12.037Z,10.77
2017-08-02T10:52:39.528Z,17.50
2017-08-02T10:55:07.010Z,11.33
2017-08-02T10:57:34.546Z,12.10
2017-08-02T11:00:02.035Z,12.10
2017-08-02T11:02:29.519Z,10.10
2017-08-02T11:04:57.005Z,9.90
2017-08-02T11:07:25.244Z,12.80
2017-08-02T11:09:52.731Z,10.90
2017-08-02T11:12:20.239Z,14.33
2017-08-02T11:14:47.721Z,11.07
2017-08-02T11:17:15.195Z,8.57
2017-08-02T11:19:42.691Z,18.83
2017-08-02T11:22:10.930Z,10.60
2017-08-02T11:24:38.422Z,16.27
2017-08-02T11:27:06.677Z,13.27
2017-08-02T11:29:34.169Z,9.60
2017-08-02T11:32:01.646Z,9.53
2017-08-02T11:34:29.146Z,13.00
2017-08-02T11:36:56.626Z,13.23
2017-08-02T11:39:24.866Z,9.33
2017-08-02T11:41:52.372Z,11.13
2017-08-02T11:44:20.629Z,13.70
2017-08-02T11:46:48.242Z,15.23
2017-08-02T11:49:15.752Z,11.83
2017-08-02T11:51:43.237Z,15.63
2017-08-02T11:54:10.736Z,10.20
2017-08-02T11:56:38.251Z,12.23
2017-08-02T11:59:05.730Z,11.80
2017-08-02T12:01:33.215Z,8.73
2017-08-02T12:04:00.713Z,12.10
2017-08-02T12:06:28.963Z,13.83
2017-08-02T12:08:56.446Z,9.67
2017-08-02T12:11:24.705Z,10.43
2017-08-02T12:13:52.183Z,8.57
2017-08-02T12:16:20.425Z,11.33
2017-08-02T12:18:47.920Z,9.10
2017-08-02T12:21:16.165Z,10.17
2017-08-02T12:23:43.649Z,13.20
2017-08-02T12:26:11.930Z,16.30
2017-08-02T12:28:40.188Z,11.83
2017-08-02T12:31:08.623Z,16.93
2017-08-02T12:33:36.128Z,12.67
2017-08-02T12:36:03.609Z,14.27
2017-08-02T12:38:31.862Z,13.47
2017-08-02T12:40:59.345Z,13.50
2017-08-02T12:43:27.603Z,13.70
2017-08-02T12:45:55.091Z,14.20
2017-08-02T12:48:23.350Z,14.80
2017-08-02T12:50:50.834Z,14.50
2017-08-02T12:53:18.315Z,16.07
2017-08-02T12:55:45.815Z,11.03
2017-08-02T12:58:13.289Z,14.20
2017-08-02T13:00:40.775Z,12.73
2017-08-02T13:03:08.278Z,12.37
2017-08-02T13:05:35.758Z,16.33
2017-08-02T13:08:03.250Z,19.47
2017-08-02T13:10:30.747Z,16.83
2017-08-02T13:12:58.237Z,12.70
2017-08-02T13:15:25.723Z,21.00
2017-08-02T13:17:53.222Z,12.73
2017-08-02T13:20:20.698Z,16.43
2017-08-02T13:22:48.173Z,12.97
2017-08-02T13:25:15.661Z,18.20
2017-08-02T13:27:43.158Z,12.73
2017-08-02T13:30:10.634Z,15.27
2017-08-02T13:32:38.130Z,12.07
2017-08-02T13:35:06.380Z,14.93
2017-08-02T13:37:33.869Z,14.73
2017-08-02T13:40:02.127Z,13.80
2017-08-02T13:42:30.368Z,13.70
2017-08-02T13:44:57.856Z,13.73
2017-08-02T13:47:25.352Z,15.23
2017-08-02T13:49:52.826Z,12.77
2017-08-02T13:52:20.305Z,20.43
2017-08-02T13:54:47.802Z,16.13
2017-08-02T13:57:16.058Z,12.43
2017-08-02T13:59:43.559Z,14.73
2017-08-02T14:02:11.062Z,10.30
2017-08-02T14:04:38.543Z,11.97
2017-08-02T14:07:06.023Z,15.77
2017-08-02T14:09:34.277Z,18.60
2017-08-02T14:12:01.758Z,18.37
2017-08-02T14:14:30.002Z,13.83
2017-08-02T14:16:57.499Z,16.63
2017-08-02T14:19:24.994Z,12.90
2017-08-02T14:21:52.482Z,19.13
2017-08-02T14:24:20.211Z,13.87
2017-08-02T14:26:47.694Z,14.47
2017-08-02T14:29:15.180Z,13.33
2017-08-02T14:31:42.687Z,12.50
2017-08-02T14:34:10.182Z,11.57
2017-08-02T14:36:37.706Z,17.83
2017-08-02T14:39:05.203Z,12.17
2017-08-02T14:41:32.685Z,14.33
2017-08-02T14:44:00.945Z,18.10
2017-08-02T14:46:28.441Z,11.47
2017-08-02T14:48:55.945Z,27.17
2017-08-02T14:51:23.418Z,15.10
2017-08-02T14:53:50.927Z,15.17
2017-08-02T14:56:18.408Z,13.50
2017-08-02T14:58:45.890Z,18.03
2017-08-02T15:01:13.381Z,14.90
2017-08-02T15:03:41.623Z,12.83
2017-08-02T15:06:09.111Z,13.60
2017-08-02T15:08:37.386Z,15.33
2017-08-02T15:11:05.639Z,15.83
2017-08-02T15:13:33.118Z,14.77
2017-08-02T15:16:01.385Z,13.63
2017-08-02T15:18:28.862Z,20.13
2017-08-02T15:20:57.108Z,13.63
2017-08-02T15:23:24.594Z,18.90
2017-08-02T15:25:52.836Z,13.57
2017-08-02T15:28:20.317Z,15.10
2017-08-02T15:30:47.805Z,12.60
2017-08-02T15:33:15.287Z,15.00
2017-08-02T15:35:42.765Z,16.43
2017-08-02T15:38:10.262Z,13.70
2017-08-02T15:40:38.523Z,12.80
2017-08-02T15:43:06.008Z,13.77
2017-08-02T15:45:34.271Z,22.30
2017-08-02T15:48:02.523Z,15.07
2017-08-02T15:50:30.007Z,13.40
2017-08-02T15:52:57.495Z,16.80
2017-08-02T15:55:24.969Z,12.10
2017-08-02T15:57:52.449Z,20.73
2017-08-02T16:00:19.951Z,18.53
2017-08-02T16:02:48.211Z,17.30
2017-08-02T16:05:15.691Z,18.27
2017-08-02T16:07:43.972Z,28.73
2017-08-02T16:10:11.464Z,17.53
2017-08-02T16:12:38.957Z,18.87
2017-08-02T16:15:06.479Z,18.70
2017-08-02T16:17:33.975Z,16.03
2017-08-02T16:20:01.463Z,9.57
2017-08-02T16:22:29.717Z,20.33
2017-08-02T16:24:57.192Z,12.07
2017-08-02T16:27:25.441Z,11.13
2017-08-02T16:29:52.959Z,12.40
2017-08-02T16:32:20.442Z,12.67
2017-08-02T16:34:47.936Z,12.80
2017-08-02T16:37:15.431Z,15.20
2017-08-02T16:39:42.911Z,18.27
2017-08-02T16:42:10.397Z,12.07
2017-08-02T16:44:37.899Z,18.83
2017-08-02T16:47:05.390Z,17.20
2017-08-02T16:49:32.885Z,11.07
2017-08-02T16:52:00.389Z,13.47
2017-08-02T16:54:27.957Z,10.87
2017-08-02T16:56:55.447Z,13.10
2017-08-02T16:59:22.951Z,18.83
2017-08-02T17:01:50.433Z,12.30
2017-08-02T17:04:17.914Z,12.40
2017-08-02T17:06:45.427Z,13.57
2017-08-02T17:09:13.014Z,17.23
2017-08-02T17:11:40.495Z,17.63
2017-08-02T17:14:08.003Z,17.87
2017-08-02T17:16:36.247Z,9.60
2017-08-02T17:19:03.734Z,22.20
2017-08-02T17:21:32.006Z,22.60
2017-08-02T17:24:00.254Z,19.77
2017-08-02T17:26:27.725Z,21.83
2017-08-02T17:28:55.223Z,16.73
2017-08-02T17:31:22.705Z,18.03
2017-08-02T17:33:50.193Z,17.63
2017-08-02T17:36:17.699Z,19.70
2017-08-02T17:38:45.190Z,14.77
2017-08-02T17:41:12.679Z,16.63
2017-08-02T17:43:40.173Z,15.90
2017-08-02T17:46:07.661Z,11.40
2017-08-02T17:48:35.150Z,16.97
2017-08-02T17:51:02.646Z,18.60
2017-08-02T17:53:30.137Z,19.83
2017-08-02T17:55:57.629Z,14.60
2017-08-02T17:58:25.122Z,16.17
2017-08-02T18:00:52.604Z,22.83
2017-08-02T18:03:20.103Z,16.23
2017-08-02T18:05:47.609Z,11.90
2017-08-02T18:08:15.089Z,21.83
2017-08-02T18:10:42.562Z,20.83
2017-08-02T18:13:10.075Z,11.93
2017-08-02T18:15:37.559Z,15.40
2017-08-02T18:18:05.044Z,19.83
2017-08-02T18:20:32.579Z,13.93
2017-08-02T18:23:00.074Z,18.40
2017-08-02T18:25:27.558Z,20.50
2017-08-02T18:27:56.081Z,11.87
2017-08-02T18:30:23.575Z,18.70
2017-08-02T18:32:51.066Z,17.53
2017-08-02T18:35:19.607Z,98.07
2017-08-02T18:37:47.107Z,146.63
2017-08-02T18:40:15.366Z,115.67
2017-08-02T18:42:42.873Z,70.03
2017-08-02T18:45:10.357Z,56.77
2017-08-02T18:47:37.843Z,82.60
2017-08-02T18:50:05.352Z,83.37
2017-08-02T18:52:32.934Z,117.97
2017-08-02T18:55:00.427Z,20.70
2017-08-02T18:57:28.730Z,33.77
2017-08-02T18:59:56.220Z,15.00
2017-08-02T19:02:23.699Z,16.77
2017-08-02T19:04:51.202Z,22.70
2017-08-02T19:07:18.687Z,16.00
2017-08-02T19:09:46.167Z,21.77
2017-08-02T19:12:13.676Z,20.27
2017-08-02T19:14:41.927Z,16.60
2017-08-02T19:17:09.546Z,24.40
2017-08-02T19:19:37.044Z,106.43
2017-08-02T19:22:04.524Z,20.77
2017-08-02T19:24:32.773Z,33.93
2017-08-02T19:27:00.282Z,33.87
2017-08-02T19:29:27.771Z,56.37
2017-08-02T19:31:55.262Z,30.30
2017-08-02T19:34:22.754Z,29.13
2017-08-02T19:36:50.246Z,45.70
2017-08-02T19:39:17.728Z,29.90
2017-08-02T19:41:45.353Z,35.23
2017-08-02T19:44:12.856Z,35.27
2017-08-02T19:46:40.347Z,28.83
2017-08-02T19:49:07.851Z,31.27
2017-08-02T19:51:35.329Z,16.50
2017-08-02T19:54:02.811Z,22.77
2017-08-02T19:56:31.095Z,26.90
2017-08-02T19:58:59.345Z,133.73
2017-08-02T20:01:26.842Z,61.67
2017-08-02T20:03:54.348Z,103.73
2017-08-02T20:06:21.821Z,35.03
2017-08-02T20:08:49.330Z,44.83
2017-08-02T20:11:16.844Z,32.23
2017-08-02T20:13:44.321Z,37.33
2017-08-02T20:16:12.574Z,30.37
2017-08-02T20:18:40.081Z,23.67
2017-08-02T20:21:07.576Z,16.93
2017-08-02T20:23:35.072Z,19.67
2017-08-02T20:26:03.339Z,30.77
2017-08-02T20:28:30.813Z,20.17
2017-08-02T20:30:59.071Z,26.70
2017-08-02T20:33:26.578Z,26.77
2017-08-02T20:35:54.053Z,25.37
2017-08-02T20:38:21.537Z,19.73
2017-08-02T20:40:49.040Z,21.17
2017-08-02T20:43:16.548Z,30.63
2017-08-02T20:45:44.034Z,20.57
2017-08-02T20:48:12.297Z,25.13
2017-08-02T20:50:39.815Z,13.53
2017-08-02T20:53:07.303Z,18.30
2017-08-02T20:55:34.834Z,225.53
2017-08-02T20:58:02.334Z,220.73
2017-08-02T21:00:29.823Z,51.43
2017-08-02T21:02:58.135Z,82.10
2017-08-02T21:05:25.625Z,151.27
2017-08-02T21:07:53.112Z,134.97
2017-08-02T21:10:21.385Z,30.23
2017-08-02T21:12:49.666Z,28.40
2017-08-02T21:15:17.929Z,22.77
2017-08-02T21:17:45.464Z,20.23
2017-08-02T21:20:12.959Z,24.17
2017-08-02T21:22:41.214Z,19.83
2017-08-02T21:25:08.724Z,22.90
2017-08-02T21:27:36.219Z,27.23
2017-08-02T21:30:03.721Z,29.13
2017-08-02T21:32:31.981Z,19.20
2017-08-02T21:34:59.457Z,16.57
2017-08-02T21:37:27.707Z,17.87
2017-08-02T21:39:55.208Z,22.07
2017-08-02T21:42:22.688Z,20.67
2017-08-02T21:44:50.170Z,19.20
2017-08-02T21:47:17.670Z,27.87
2017-08-02T21:49:45.158Z,38.97
2017-08-02T21:52:12.638Z,32.27
2017-08-02T21:54:40.133Z,18.40
2017-08-02T21:57:08.379Z,18.70
2017-08-02T21:59:35.870Z,26.07
2017-08-02T22:02:03.358Z,38.80
2017-08-02T22:04:30.846Z,34.53
2017-08-02T22:06:58.325Z,24.87
2017-08-02T22:09:25.847Z,15.70
2017-08-02T22:11:53.441Z,20.57
2017-08-02T22:14:20.927Z,21.90
2017-08-02T22:16:49.193Z,21.90
2017-08-02T22:19:16.677Z,18.93
2017-08-02T22:21:44.951Z,18.33
2017-08-02T22:24:13.218Z,27.07
2017-08-02T22:26:41.498Z,160.70
2017-08-02T22:29:09.775Z,105.67
2017-08-02T22:31:38.046Z,18.87
2017-08-02T22:34:06.329Z,35.63
2017-08-02T22:36:34.587Z,32.73
2017-08-02T22:39:02.092Z,24.20
2017-08-02T22:41:29.592Z,25.00
2017-08-02T22:43:57.075Z,28.37
2017-08-02T22:46:27.297Z,46.83
2017-08-02T22:48:54.976Z,38.27
2017-08-02T22:51:23.226Z,24.50
2017-08-02T22:53:50.722Z,37.23
2017-08-02T22:56:18.214Z,37.90
2017-08-02T22:58:45.703Z,19.53
2017-08-02T23:01:13.218Z,17.93
2017-08-02T23:03:40.703Z,17.43
2017-08-02T23:06:08.191Z,19.27
2017-08-02T23:08:36.464Z,14.13
2017-08-02T23:11:03.942Z,20.83
2017-08-02T23:13:32.186Z,12.97
2017-08-02T23:15:59.692Z,23.37
2017-08-02T23:18:27.183Z,16.50
2017-08-02T23:20:54.667Z,18.23
2017-08-02T23:23:22.158Z,20.67
2017-08-02T23:25:50.423Z,15.03
2017-08-02T23:28:18.675Z,12.67
2017-08-02T23:30:46.166Z,16.37
2017-08-02T23:33:14.421Z,17.67
2017-08-02T23:35:41.908Z,16.17
2017-08-02T23:38:10.170Z,11.60
2017-08-02T23:40:38.429Z,21.10
2017-08-02T23:43:05.905Z,16.57
2017-08-02T23:45:34.157Z,19.03
2017-08-02T23:48:01.639Z,18.00
2017-08-02T23:50:29.882Z,18.53
2017-08-02T23:52:57.375Z,16.73
2017-08-02T23:55:24.850Z,18.57
2017-08-02T23:57:53.097Z,16.03
